createdAt,value
2023-06-03T00:00:15.738Z,99883.13
2023-06-03T00:02:43.007Z,99890.81
2023-06-03T00:05:09.555Z,99890.22
2023-06-03T00:07:35.935Z,99884.63
2023-06-03T00:10:02.479Z,99895.28
2023-06-03T00:12:28.865Z,99887.72
2023-06-03T00:14:55.257Z,99885.19
2023-06-03T00:17:22.769Z,99884.91
2023-06-03T00:19:49.742Z,99885.78
2023-06-03T00:22:16.133Z,99887.16
2023-06-03T00:24:42.588Z,99888.56
2023-06-03T00:27:08.973Z,99883.22
2023-06-03T00:29:35.615Z,99892.88
2023-06-03T00:32:02.050Z,99896.09
2023-06-03T00:34:28.434Z,99896.34
2023-06-03T00:36:54.915Z,99890.63
2023-06-03T00:39:22.892Z,99893.72
2023-06-03T00:41:49.349Z,99893.63
2023-06-03T00:44:15.720Z,99887.09
2023-06-03T00:46:42.641Z,99884.22
2023-06-03T00:49:09.102Z,99878.63
2023-06-03T00:51:36.551Z,99873.91
2023-06-03T00:54:03.317Z,99873.31
2023-06-03T00:56:35.457Z,99886.06
2023-06-03T00:59:02.077Z,99882.03
2023-06-03T01:01:30.040Z,99878.25
2023-06-03T01:03:57.227Z,99872.22
2023-06-03T01:07:08.599Z,99875.44
2023-06-03T01:09:46.038Z,99872.63
2023-06-03T01:12:34.996Z,99876.22
2023-06-03T01:15:07.627Z,99874.94
2023-06-03T01:17:40.832Z,99873.16
2023-06-03T01:20:11.324Z,99888.78
2023-06-03T01:22:43.910Z,99885.09
2023-06-03T01:25:12.210Z,99880.81
2023-06-03T01:27:42.952Z,99886.44
2023-06-03T01:30:21.278Z,99873.25
2023-06-03T01:32:50.342Z,99882.50
2023-06-03T01:35:17.835Z,99878.72
2023-06-03T01:37:45.663Z,99881.88
2023-06-03T01:40:13.300Z,99877.44
2023-06-03T01:42:39.823Z,99878.38
2023-06-03T01:45:07.084Z,99878.25
2023-06-03T01:47:35.204Z,99886.22
2023-06-03T01:50:01.770Z,99872.50
2023-06-03T01:52:30.352Z,99870.16
2023-06-03T01:54:56.810Z,99872.25
2023-06-03T01:57:23.356Z,99882.97
2023-06-03T01:59:50.636Z,99866.94
2023-06-03T02:02:17.122Z,99872.09
2023-06-03T02:04:45.869Z,99877.00
2023-06-03T02:07:12.573Z,99873.91
2023-06-03T02:09:40.107Z,99872.03
2023-06-03T02:12:08.305Z,99873.50
2023-06-03T02:14:34.734Z,99859.72
2023-06-03T02:17:01.258Z,99855.03
2023-06-03T02:19:27.981Z,99863.56
2023-06-03T02:21:57.506Z,99855.84
2023-06-03T02:24:24.850Z,99857.28
2023-06-03T02:26:51.759Z,99854.72
2023-06-03T02:29:19.691Z,99853.19
2023-06-03T02:31:47.345Z,99861.88
2023-06-03T02:34:13.844Z,99861.56
2023-06-03T02:36:40.940Z,99865.94
2023-06-03T02:39:10.315Z,99861.72
2023-06-03T02:41:38.278Z,99861.09
2023-06-03T02:44:06.127Z,99870.00
2023-06-03T02:46:33.394Z,99868.63
2023-06-03T02:49:06.711Z,99871.22
2023-06-03T02:51:34.087Z,99871.56
2023-06-03T02:54:00.652Z,99876.78
2023-06-03T02:56:27.264Z,99870.59
2023-06-03T02:58:53.878Z,99878.41
2023-06-03T03:01:20.452Z,99887.63
2023-06-03T03:03:47.866Z,99883.53
2023-06-03T03:06:20.772Z,99892.31
2023-06-03T03:08:48.500Z,99888.53
2023-06-03T03:11:17.022Z,99895.69
2023-06-03T03:13:45.612Z,99901.06
2023-06-03T03:16:14.408Z,99894.78
2023-06-03T03:18:42.946Z,99895.63
2023-06-03T03:21:11.937Z,99902.19
2023-06-03T03:23:39.030Z,99899.13
2023-06-03T03:26:08.982Z,99909.34
2023-06-03T03:28:36.577Z,99907.22
2023-06-03T03:31:05.932Z,99907.41
2023-06-03T03:33:34.052Z,99912.97
2023-06-03T03:36:09.290Z,99916.84
2023-06-03T03:38:40.883Z,99913.75
2023-06-03T03:41:07.617Z,99918.50
2023-06-03T03:43:36.768Z,99915.63
2023-06-03T03:46:10.471Z,99913.69
2023-06-03T03:48:37.453Z,99907.34
2023-06-03T03:51:04.738Z,99916.53
2023-06-03T03:53:38.331Z,99916.91
2023-06-03T03:56:10.951Z,99923.19
2023-06-03T03:58:45.262Z,99925.19
2023-06-03T04:01:25.140Z,99925.72
2023-06-03T04:04:01.136Z,99916.41
2023-06-03T04:06:34.052Z,99922.84
2023-06-03T04:09:02.385Z,99923.19
2023-06-03T04:11:39.363Z,99924.88
2023-06-03T04:14:12.226Z,99926.81
2023-06-03T04:16:56.936Z,99924.44
2023-06-03T04:19:42.620Z,99917.19
2023-06-03T04:22:23.082Z,99925.34
2023-06-03T04:24:57.634Z,99922.16
2023-06-03T04:27:26.484Z,99922.03
2023-06-03T04:29:53.413Z,99928.44
2023-06-03T04:32:20.797Z,99923.72
2023-06-03T04:34:55.111Z,99924.88
2023-06-03T04:37:23.419Z,99937.06
2023-06-03T04:39:52.133Z,99930.91
2023-06-03T04:42:18.662Z,99911.44
2023-06-03T04:44:49.261Z,99934.34
2023-06-03T04:47:18.413Z,99921.19
2023-06-03T04:49:48.118Z,99923.09
2023-06-03T04:52:14.670Z,99934.13
2023-06-03T04:54:45.473Z,99921.41
2023-06-03T04:57:13.985Z,99928.38
2023-06-03T04:59:41.531Z,99923.34
2023-06-03T05:02:09.678Z,99932.59
2023-06-03T05:04:38.398Z,99911.69
2023-06-03T05:07:05.721Z,99923.91
2023-06-03T05:09:32.478Z,99919.41
2023-06-03T05:11:59.310Z,99914.31
2023-06-03T05:14:26.308Z,99913.03
2023-06-03T05:16:52.930Z,99916.69
2023-06-03T05:19:19.666Z,99918.25
2023-06-03T05:21:46.115Z,99924.53
2023-06-03T05:24:13.292Z,99918.50
2023-06-03T05:26:40.669Z,99922.69
2023-06-03T05:29:07.080Z,99918.41
2023-06-03T05:31:33.450Z,99917.69
2023-06-03T05:33:59.982Z,99901.59
2023-06-03T05:36:27.536Z,99917.03
2023-06-03T05:38:56.685Z,99919.72
2023-06-03T05:41:23.947Z,99918.84
2023-06-03T05:43:50.457Z,99909.38
2023-06-03T05:46:16.926Z,99912.63
2023-06-03T05:48:44.303Z,99898.94
2023-06-03T05:51:10.963Z,99918.88
2023-06-03T05:53:39.337Z,99915.22
2023-06-03T05:56:05.993Z,99906.41
2023-06-03T05:58:33.148Z,99919.84
2023-06-03T06:00:59.836Z,99909.50
2023-06-03T06:03:27.019Z,99904.75
2023-06-03T06:05:53.573Z,99905.16
2023-06-03T06:08:19.961Z,99899.47
2023-06-03T06:10:46.552Z,99912.75
2023-06-03T06:13:12.944Z,99903.50
2023-06-03T06:15:40.448Z,99911.94
2023-06-03T06:18:07.016Z,99909.28
2023-06-03T06:20:33.430Z,99917.69
2023-06-03T06:23:00.046Z,99916.00
2023-06-03T06:25:26.524Z,99919.38
2023-06-03T06:27:52.900Z,99908.75
2023-06-03T06:30:20.358Z,99916.44
2023-06-03T06:32:53.689Z,99905.94
2023-06-03T06:35:28.510Z,99905.53
2023-06-03T06:37:59.557Z,99906.22
2023-06-03T06:40:30.487Z,99913.78
2023-06-03T06:42:57.002Z,99896.41
2023-06-03T06:45:35.348Z,99915.88
2023-06-03T06:48:09.606Z,99904.22
2023-06-03T06:50:48.879Z,99915.28
2023-06-03T06:53:19.291Z,99912.75
2023-06-03T06:55:56.708Z,99910.34
2023-06-03T06:58:38.419Z,99921.19
2023-06-03T07:01:07.947Z,99917.09
2023-06-03T07:03:39.371Z,99913.19
2023-06-03T07:06:06.653Z,99914.28
2023-06-03T07:08:34.975Z,99911.44
2023-06-03T07:11:05.290Z,99914.09
2023-06-03T07:13:37.096Z,99897.22
2023-06-03T07:16:05.713Z,99898.34
2023-06-03T07:18:33.606Z,99900.72
2023-06-03T07:21:00.840Z,99899.56
2023-06-03T07:23:29.762Z,99910.56
2023-06-03T07:25:57.415Z,99901.59
2023-06-03T07:28:36.140Z,99906.13
2023-06-03T07:31:10.774Z,99902.13
2023-06-03T07:33:46.157Z,99903.22
2023-06-03T07:36:16.215Z,99902.25
2023-06-03T07:39:16.577Z,99906.38
2023-06-03T07:41:54.876Z,99906.22
2023-06-03T07:44:45.100Z,99900.91
2023-06-03T07:47:16.695Z,99901.00
2023-06-03T07:49:48.232Z,99905.16
2023-06-03T07:52:22.372Z,99906.66
2023-06-03T07:54:49.700Z,99908.75
2023-06-03T07:57:17.008Z,99903.47
2023-06-03T07:59:52.552Z,99907.09
2023-06-03T08:02:19.119Z,99911.19
2023-06-03T08:04:45.887Z,99899.94
2023-06-03T08:07:13.471Z,99901.47
2023-06-03T08:09:41.253Z,99905.13
2023-06-03T08:12:09.471Z,99906.63
2023-06-03T08:14:40.568Z,99919.44
2023-06-03T08:17:13.737Z,99909.59
2023-06-03T08:19:44.039Z,99914.47
2023-06-03T08:22:36.721Z,99919.03
2023-06-03T08:25:03.251Z,99911.81
2023-06-03T08:27:32.567Z,99907.63
2023-06-03T08:29:58.994Z,99904.78
2023-06-03T08:32:25.490Z,99904.63
2023-06-03T08:34:51.985Z,99904.41
2023-06-03T08:37:18.554Z,99913.25
2023-06-03T08:39:45.232Z,99906.47
2023-06-03T08:42:16.205Z,99906.16
2023-06-03T08:45:09.377Z,99896.50
2023-06-03T08:47:44.785Z,99907.97
2023-06-03T08:50:11.967Z,99913.47
2023-06-03T08:52:40.248Z,99893.78
2023-06-03T08:55:15.086Z,99900.53
2023-06-03T08:57:48.775Z,99904.94
2023-06-03T09:00:21.862Z,99906.94
2023-06-03T09:02:49.317Z,99887.09
2023-06-03T09:05:16.925Z,99896.50
2023-06-03T09:07:45.109Z,99896.50
2023-06-03T09:10:12.265Z,99890.00
2023-06-03T09:12:39.289Z,99897.91
2023-06-03T09:15:07.043Z,99895.59
2023-06-03T09:17:36.231Z,99879.50
2023-06-03T09:20:06.076Z,99895.06
2023-06-03T09:22:32.873Z,99897.94
2023-06-03T09:24:59.270Z,99892.91
2023-06-03T09:27:25.718Z,99892.72
2023-06-03T09:29:55.054Z,99900.41
2023-06-03T09:32:22.329Z,99888.03
2023-06-03T09:34:49.997Z,99908.28
2023-06-03T09:37:16.436Z,99903.09
2023-06-03T09:39:44.030Z,99903.59
2023-06-03T09:42:11.395Z,99900.56
2023-06-03T09:44:50.251Z,99900.06
2023-06-03T09:47:17.413Z,99894.00
2023-06-03T09:50:05.586Z,99881.94
2023-06-03T09:52:39.484Z,99889.59
2023-06-03T09:55:10.320Z,99882.84
2023-06-03T09:57:40.676Z,99882.09
2023-06-03T10:00:10.374Z,99891.09
2023-06-03T10:02:39.865Z,99895.94
2023-06-03T10:05:26.267Z,99887.34
2023-06-03T10:07:52.677Z,99888.25
2023-06-03T10:10:19.162Z,99872.16
2023-06-03T10:12:46.613Z,99888.19
2023-06-03T10:15:12.986Z,99880.06
2023-06-03T10:17:47.671Z,99883.06
2023-06-03T10:20:32.530Z,99875.28
2023-06-03T10:23:01.935Z,99874.19
2023-06-03T10:25:31.787Z,99874.78
2023-06-03T10:27:59.066Z,99882.41
2023-06-03T10:30:27.072Z,99868.06
2023-06-03T10:32:56.863Z,99870.09
2023-06-03T10:35:23.930Z,99859.00
2023-06-03T10:37:50.547Z,99872.09
2023-06-03T10:40:17.553Z,99860.31
2023-06-03T10:42:45.247Z,99861.81
2023-06-03T10:45:12.413Z,99861.72
2023-06-03T10:47:41.555Z,99853.19
2023-06-03T10:50:29.816Z,99863.16
2023-06-03T10:53:09.343Z,99868.72
2023-06-03T10:56:09.192Z,99863.50
2023-06-03T10:58:37.389Z,99863.75
2023-06-03T11:01:07.465Z,99865.31
2023-06-03T11:03:55.375Z,99860.50
2023-06-03T11:06:22.425Z,99862.22
2023-06-03T11:09:09.872Z,99860.66
2023-06-03T11:11:42.281Z,99859.16
2023-06-03T11:14:08.622Z,99859.59
2023-06-03T11:17:01.440Z,99855.34
2023-06-03T11:19:35.729Z,99849.47
2023-06-03T11:22:08.439Z,99845.88
2023-06-03T11:24:41.129Z,99846.34
2023-06-03T11:27:10.515Z,99843.28
2023-06-03T11:29:58.187Z,99857.22
2023-06-03T11:32:27.232Z,99844.50
2023-06-03T11:35:02.965Z,99861.09
2023-06-03T11:37:41.819Z,99852.16
2023-06-03T11:40:17.919Z,99859.03
2023-06-03T11:42:50.638Z,99856.25
2023-06-03T11:45:25.866Z,99851.94
2023-06-03T11:48:05.368Z,99852.53
2023-06-03T11:50:54.666Z,99838.03
2023-06-03T11:53:31.617Z,99852.44
2023-06-03T11:56:11.178Z,99847.28
2023-06-03T11:58:39.821Z,99844.22
2023-06-03T12:01:18.958Z,99830.84
2023-06-03T12:04:01.890Z,99841.69
2023-06-03T12:06:37.694Z,99821.97
2023-06-03T12:09:04.338Z,99843.09
2023-06-03T12:11:33.010Z,99826.06
2023-06-03T12:14:01.023Z,99828.53
2023-06-03T12:16:32.733Z,99827.53
2023-06-03T12:19:01.880Z,99824.16
2023-06-03T12:21:28.460Z,99820.94
2023-06-03T12:23:55.612Z,99825.66
2023-06-03T12:26:22.143Z,99819.09
2023-06-03T12:28:48.580Z,99821.63
2023-06-03T12:31:16.781Z,99818.66
2023-06-03T12:33:44.685Z,99816.50
2023-06-03T12:36:11.878Z,99822.75
2023-06-03T12:38:58.025Z,99816.16
2023-06-03T12:41:24.834Z,99815.41
2023-06-03T12:44:04.792Z,99810.09
2023-06-03T12:46:31.644Z,99804.84
2023-06-03T12:49:13.542Z,99810.91
2023-06-03T12:51:39.935Z,99816.13
2023-06-03T12:54:06.825Z,99807.38
2023-06-03T12:56:34.409Z,99805.09
2023-06-03T12:59:01.433Z,99815.09
2023-06-03T13:01:28.211Z,99808.69
2023-06-03T13:03:57.523Z,99804.13
2023-06-03T13:06:25.482Z,99809.28
2023-06-03T13:08:53.004Z,99798.44
2023-06-03T13:11:21.241Z,99807.59
2023-06-03T13:13:47.999Z,99802.66
2023-06-03T13:16:14.732Z,99790.19
2023-06-03T13:18:43.992Z,99792.28
2023-06-03T13:21:11.279Z,99797.41
2023-06-03T13:23:37.677Z,99793.84
2023-06-03T13:26:04.026Z,99783.44
2023-06-03T13:28:30.461Z,99800.97
2023-06-03T13:30:57.034Z,99794.16
2023-06-03T13:33:23.507Z,99794.38
2023-06-03T13:35:49.897Z,99794.38
2023-06-03T13:38:16.553Z,99794.28
2023-06-03T13:40:42.985Z,99788.34
2023-06-03T13:43:09.811Z,99801.53
2023-06-03T13:45:36.221Z,99787.94
2023-06-03T13:48:02.653Z,99789.38
2023-06-03T13:50:29.200Z,99793.06
2023-06-03T13:52:55.991Z,99789.34
2023-06-03T13:55:22.398Z,99789.56
2023-06-03T13:57:48.756Z,99784.44
2023-06-03T14:00:15.327Z,99779.47
2023-06-03T14:02:41.772Z,99767.03
2023-06-03T14:05:08.958Z,99774.16
2023-06-03T14:07:35.387Z,99755.53
2023-06-03T14:10:01.840Z,99777.19
2023-06-03T14:12:28.994Z,99778.22
2023-06-03T14:14:55.357Z,99768.53
2023-06-03T14:17:23.289Z,99763.88
2023-06-03T14:19:49.768Z,99769.25
2023-06-03T14:22:16.210Z,99760.34
2023-06-03T14:24:44.651Z,99759.88
2023-06-03T14:27:11.010Z,99758.84
2023-06-03T14:29:37.469Z,99763.44
2023-06-03T14:32:04.329Z,99760.09
2023-06-03T14:34:30.983Z,99760.88
2023-06-03T14:36:57.558Z,99759.59
2023-06-03T14:39:24.001Z,99761.28
2023-06-03T14:41:52.400Z,99752.97
2023-06-03T14:44:18.971Z,99764.75
2023-06-03T14:46:45.395Z,99750.41
2023-06-03T14:49:11.758Z,99754.09
2023-06-03T14:51:38.301Z,99748.66
2023-06-03T14:54:04.881Z,99744.88
2023-06-03T14:56:31.337Z,99747.84
2023-06-03T14:58:58.751Z,99739.47
2023-06-03T15:01:27.624Z,99736.34
2023-06-03T15:03:55.255Z,99747.88
2023-06-03T15:06:21.708Z,99750.56
2023-06-03T15:08:48.138Z,99743.91
2023-06-03T15:11:14.635Z,99744.66
2023-06-03T15:13:41.084Z,99743.84
2023-06-03T15:16:07.747Z,99746.72
2023-06-03T15:18:36.024Z,99739.22
2023-06-03T15:21:02.508Z,99727.19
2023-06-03T15:23:29.478Z,99728.78
2023-06-03T15:25:55.971Z,99741.13
2023-06-03T15:28:22.438Z,99738.34
2023-06-03T15:30:48.872Z,99737.41
2023-06-03T15:33:15.412Z,99728.72
2023-06-03T15:35:41.835Z,99733.63
2023-06-03T15:38:08.350Z,99739.59
2023-06-03T15:40:34.770Z,99737.47
2023-06-03T15:43:01.553Z,99735.94
2023-06-03T15:45:27.947Z,99732.84
2023-06-03T15:47:54.522Z,99740.28
2023-06-03T15:50:21.227Z,99735.66
2023-06-03T15:52:47.910Z,99733.34
2023-06-03T15:55:14.341Z,99731.03
2023-06-03T15:57:40.770Z,99736.59
2023-06-03T16:00:08.131Z,99732.56
